sensor_id;sensor_type;location;lat;lon;timestamp;temperature;humidity
1011;DHT22;494;48.744;10.106;2023-08-31T00:01:01;16.20;1.00
1011;DHT22;494;48.744;10.106;2023-08-31T00:03:31;16.20;1.00
1011;DHT22;494;48.744;10.106;2023-08-31T00:06:02;16.20;1.00
1011;DHT22;494;48.744;10.106;2023-08-31T00:08:34;16.10;1.00
1011;DHT22;494;48.744;10.106;2023-08-31T00:11:06;16.10;1.00
1011;DHT22;494;48.744;10.106;2023-08-31T00:13:38;16.00;1.00
1011;DHT22;494;48.744;10.106;2023-08-31T00:16:09;15.80;1.00
1011;DHT22;494;48.744;10.106;2023-08-31T00:18:40;15.80;1.00
1011;DHT22;494;48.744;10.106;2023-08-31T00:21:12;15.80;1.00
1011;DHT22;494;48.744;10.106;2023-08-31T00:23:43;15.60;1.00
1011;DHT22;494;48.744;10.106;2023-08-31T00:26:13;15.50;1.00
1011;DHT22;494;48.744;10.106;2023-08-31T00:28:44;15.60;1.00
1011;DHT22;494;48.744;10.106;2023-08-31T00:31:13;15.60;1.00
1011;DHT22;494;48.744;10.106;2023-08-31T00:33:42;15.60;1.00
1011;DHT22;494;48.744;10.106;2023-08-31T00:36:14;15.60;1.00
1011;DHT22;494;48.744;10.106;2023-08-31T00:38:46;15.70;1.00
1011;DHT22;494;48.744;10.106;2023-08-31T00:41:16;15.70;1.00
1011;DHT22;494;48.744;10.106;2023-08-31T00:43:50;15.70;1.00
1011;DHT22;494;48.744;10.106;2023-08-31T00:46:20;15.70;1.00
1011;DHT22;494;48.744;10.106;2023-08-31T00:48:49;15.60;1.00
1011;DHT22;494;48.744;10.106;2023-08-31T00:51:23;15.60;1.00
1011;DHT22;494;48.744;10.106;2023-08-31T00:53:54;15.50;1.00
1011;DHT22;494;48.744;10.106;2023-08-31T00:56:27;15.40;1.00
1011;DHT22;494;48.744;10.106;2023-08-31T00:58:58;15.50;1.00
1011;DHT22;494;48.744;10.106;2023-08-31T01:01:36;15.50;1.00
1011;DHT22;494;48.744;10.106;2023-08-31T01:04:16;15.50;1.00
1011;DHT22;494;48.744;10.106;2023-08-31T01:07:04;15.40;1.00
1011;DHT22;494;48.744;10.106;2023-08-31T01:09:50;15.30;1.00
1011;DHT22;494;48.744;10.106;2023-08-31T01:12:39;15.20;1.00
1011;DHT22;494;48.744;10.106;2023-08-31T01:15:14;15.20;1.00
1011;DHT22;494;48.744;10.106;2023-08-31T01:17:48;15.20;1.00
1011;DHT22;494;48.744;10.106;2023-08-31T01:20:31;15.30;1.00
1011;DHT22;494;48.744;10.106;2023-08-31T01:23:06;15.30;1.00
1011;DHT22;494;48.744;10.106;2023-08-31T01:25:43;15.30;1.00
1011;DHT22;494;48.744;10.106;2023-08-31T01:28:16;15.30;1.00
1011;DHT22;494;48.744;10.106;2023-08-31T01:30:46;15.30;1.00
1011;DHT22;494;48.744;10.106;2023-08-31T01:33:24;15.40;1.00
1011;DHT22;494;48.744;10.106;2023-08-31T01:35:57;15.40;1.00
1011;DHT22;494;48.744;10.106;2023-08-31T01:38:34;15.40;1.00
1011;DHT22;494;48.744;10.106;2023-08-31T01:41:12;15.40;1.00
1011;DHT22;494;48.744;10.106;2023-08-31T01:43:48;15.30;1.00
1011;DHT22;494;48.744;10.106;2023-08-31T01:46:20;15.20;1.00
1011;DHT22;494;48.744;10.106;2023-08-31T01:48:50;15.20;1.00
1011;DHT22;494;48.744;10.106;2023-08-31T01:51:19;15.20;1.00
1011;DHT22;494;48.744;10.106;2023-08-31T01:53:49;15.20;1.00
1011;DHT22;494;48.744;10.106;2023-08-31T01:56:21;15.20;1.00
1011;DHT22;494;48.744;10.106;2023-08-31T01:58:50;15.10;1.00
1011;DHT22;494;48.744;10.106;2023-08-31T02:01:20;15.00;1.00
1011;DHT22;494;48.744;10.106;2023-08-31T02:03:49;15.00;1.00
1011;DHT22;494;48.744;10.106;2023-08-31T02:06:19;14.90;1.00
1011;DHT22;494;48.744;10.106;2023-08-31T02:08:48;15.00;1.00
1011;DHT22;494;48.744;10.106;2023-08-31T02:11:20;14.90;1.00
1011;DHT22;494;48.744;10.106;2023-08-31T02:13:49;14.80;1.00
1011;DHT22;494;48.744;10.106;2023-08-31T02:16:22;14.80;1.00
1011;DHT22;494;48.744;10.106;2023-08-31T02:18:51;14.70;1.00
1011;DHT22;494;48.744;10.106;2023-08-31T02:21:22;14.60;1.00
1011;DHT22;494;48.744;10.106;2023-08-31T02:23:52;14.40;1.00
1011;DHT22;494;48.744;10.106;2023-08-31T02:26:24;14.40;1.00
1011;DHT22;494;48.744;10.106;2023-08-31T02:29:04;14.40;1.00
1011;DHT22;494;48.744;10.106;2023-08-31T02:31:32;14.40;1.00
1011;DHT22;494;48.744;10.106;2023-08-31T02:34:05;14.40;1.00
1011;DHT22;494;48.744;10.106;2023-08-31T02:36:41;14.30;1.00
1011;DHT22;494;48.744;10.106;2023-08-31T02:39:14;14.20;1.00
1011;DHT22;494;48.744;10.106;2023-08-31T02:41:47;14.10;1.00
1011;DHT22;494;48.744;10.106;2023-08-31T02:44:22;14.00;1.00
1011;DHT22;494;48.744;10.106;2023-08-31T02:47:31;13.90;1.00
1011;DHT22;494;48.744;10.106;2023-08-31T02:50:36;13.60;1.00
1011;DHT22;494;48.744;10.106;2023-08-31T02:53:22;13.50;1.00
1011;DHT22;494;48.744;10.106;2023-08-31T02:56:16;13.60;1.00
1011;DHT22;494;48.744;10.106;2023-08-31T02:58:50;13.60;1.00
1011;DHT22;494;48.744;10.106;2023-08-31T03:01:23;13.70;1.00
1011;DHT22;494;48.744;10.106;2023-08-31T03:04:00;13.70;1.00
1011;DHT22;494;48.744;10.106;2023-08-31T03:06:31;13.70;1.00
1011;DHT22;494;48.744;10.106;2023-08-31T03:09:17;13.70;1.00
1011;DHT22;494;48.744;10.106;2023-08-31T03:11:51;13.60;1.00
1011;DHT22;494;48.744;10.106;2023-08-31T03:14:22;13.60;1.00
1011;DHT22;494;48.744;10.106;2023-08-31T03:16:55;13.60;1.00
1011;DHT22;494;48.744;10.106;2023-08-31T03:19:25;13.50;1.00
1011;DHT22;494;48.744;10.106;2023-08-31T03:21:53;13.40;1.00
1011;DHT22;494;48.744;10.106;2023-08-31T03:24:24;13.40;1.00
1011;DHT22;494;48.744;10.106;2023-08-31T03:26:54;13.50;1.00
1011;DHT22;494;48.744;10.106;2023-08-31T03:29:25;13.60;1.00
1011;DHT22;494;48.744;10.106;2023-08-31T03:31:56;13.60;1.00
1011;DHT22;494;48.744;10.106;2023-08-31T03:34:28;13.70;1.00
1011;DHT22;494;48.744;10.106;2023-08-31T03:37:01;13.60;1.00
1011;DHT22;494;48.744;10.106;2023-08-31T03:39:31;13.50;1.00
1011;DHT22;494;48.744;10.106;2023-08-31T03:42:00;13.50;1.00
1011;DHT22;494;48.744;10.106;2023-08-31T03:44:35;13.40;1.00
1011;DHT22;494;48.744;10.106;2023-08-31T03:47:05;13.50;1.00
1011;DHT22;494;48.744;10.106;2023-08-31T03:49:35;13.50;1.00
1011;DHT22;494;48.744;10.106;2023-08-31T03:52:05;13.50;1.00
1011;DHT22;494;48.744;10.106;2023-08-31T03:54:34;13.50;1.00
1011;DHT22;494;48.744;10.106;2023-08-31T03:57:03;13.50;1.00
1011;DHT22;494;48.744;10.106;2023-08-31T03:59:32;13.40;1.00
1011;DHT22;494;48.744;10.106;2023-08-31T04:02:03;13.40;1.00
1011;DHT22;494;48.744;10.106;2023-08-31T04:04:35;13.50;1.00
1011;DHT22;494;48.744;10.106;2023-08-31T04:07:18;13.40;1.00
1011;DHT22;494;48.744;10.106;2023-08-31T04:09:47;13.40;1.00
1011;DHT22;494;48.744;10.106;2023-08-31T04:12:17;13.30;1.00
1011;DHT22;494;48.744;10.106;2023-08-31T04:14:45;13.40;1.00
1011;DHT22;494;48.744;10.106;2023-08-31T04:17:16;13.40;1.00
1011;DHT22;494;48.744;10.106;2023-08-31T04:19:46;13.40;1.00
1011;DHT22;494;48.744;10.106;2023-08-31T04:22:15;13.50;1.00
1011;DHT22;494;48.744;10.106;2023-08-31T04:24:44;13.50;1.00
1011;DHT22;494;48.744;10.106;2023-08-31T04:27:13;13.50;1.00
1011;DHT22;494;48.744;10.106;2023-08-31T04:29:42;13.40;1.00
1011;DHT22;494;48.744;10.106;2023-08-31T04:32:15;13.30;1.00
1011;DHT22;494;48.744;10.106;2023-08-31T04:34:47;13.10;1.00
1011;DHT22;494;48.744;10.106;2023-08-31T04:37:16;13.00;1.00
1011;DHT22;494;48.744;10.106;2023-08-31T04:39:45;12.90;1.00
1011;DHT22;494;48.744;10.106;2023-08-31T04:42:18;12.90;1.00
1011;DHT22;494;48.744;10.106;2023-08-31T04:44:48;12.80;1.00
1011;DHT22;494;48.744;10.106;2023-08-31T04:47:19;12.90;1.00
1011;DHT22;494;48.744;10.106;2023-08-31T04:49:49;12.90;1.00
1011;DHT22;494;48.744;10.106;2023-08-31T04:52:19;12.90;1.00
1011;DHT22;494;48.744;10.106;2023-08-31T04:54:47;13.00;1.00
1011;DHT22;494;48.744;10.106;2023-08-31T04:57:20;13.00;1.00
1011;DHT22;494;48.744;10.106;2023-08-31T04:59:49;13.00;1.00
1011;DHT22;494;48.744;10.106;2023-08-31T05:02:19;13.00;1.00
1011;DHT22;494;48.744;10.106;2023-08-31T05:04:50;13.00;1.00
1011;DHT22;494;48.744;10.106;2023-08-31T05:07:22;13.00;1.00
1011;DHT22;494;48.744;10.106;2023-08-31T05:09:52;13.00;1.00
1011;DHT22;494;48.744;10.106;2023-08-31T05:12:22;13.00;1.00
1011;DHT22;494;48.744;10.106;2023-08-31T05:14:51;13.00;1.00
1011;DHT22;494;48.744;10.106;2023-08-31T05:17:21;13.00;1.00
1011;DHT22;494;48.744;10.106;2023-08-31T05:19:50;13.10;1.00
1011;DHT22;494;48.744;10.106;2023-08-31T05:22:20;13.00;1.00
1011;DHT22;494;48.744;10.106;2023-08-31T05:24:51;13.00;1.00
1011;DHT22;494;48.744;10.106;2023-08-31T05:27:20;12.90;1.00
1011;DHT22;494;48.744;10.106;2023-08-31T05:29:49;13.00;1.00
1011;DHT22;494;48.744;10.106;2023-08-31T05:32:18;13.00;1.00
1011;DHT22;494;48.744;10.106;2023-08-31T05:34:48;13.10;1.00
1011;DHT22;494;48.744;10.106;2023-08-31T05:37:17;13.20;1.00
1011;DHT22;494;48.744;10.106;2023-08-31T05:39:47;13.30;1.00
1011;DHT22;494;48.744;10.106;2023-08-31T05:42:16;13.30;1.00
1011;DHT22;494;48.744;10.106;2023-08-31T05:44:46;13.50;1.00
1011;DHT22;494;48.744;10.106;2023-08-31T05:47:14;13.50;1.00
1011;DHT22;494;48.744;10.106;2023-08-31T05:49:43;13.60;1.00
1011;DHT22;494;48.744;10.106;2023-08-31T05:52:14;13.60;1.00
1011;DHT22;494;48.744;10.106;2023-08-31T05:54:43;13.70;1.00
1011;DHT22;494;48.744;10.106;2023-08-31T05:57:11;13.70;1.00
1011;DHT22;494;48.744;10.106;2023-08-31T05:59:40;13.80;1.00
1011;DHT22;494;48.744;10.106;2023-08-31T06:02:09;13.90;1.00
1011;DHT22;494;48.744;10.106;2023-08-31T06:04:38;14.00;1.00
1011;DHT22;494;48.744;10.106;2023-08-31T06:07:07;13.90;1.00
1011;DHT22;494;48.744;10.106;2023-08-31T06:09:38;14.00;1.00
1011;DHT22;494;48.744;10.106;2023-08-31T06:12:07;14.10;1.00
1011;DHT22;494;48.744;10.106;2023-08-31T06:14:36;14.20;1.00
1011;DHT22;494;48.744;10.106;2023-08-31T06:17:04;14.40;1.00
1011;DHT22;494;48.744;10.106;2023-08-31T06:19:33;14.50;1.00
1011;DHT22;494;48.744;10.106;2023-08-31T06:22:03;14.80;1.00
1011;DHT22;494;48.744;10.106;2023-08-31T06:24:32;14.90;1.00
1011;DHT22;494;48.744;10.106;2023-08-31T06:27:04;15.00;1.00
1011;DHT22;494;48.744;10.106;2023-08-31T06:29:33;15.00;1.00
1011;DHT22;494;48.744;10.106;2023-08-31T06:32:01;15.00;1.00
1011;DHT22;494;48.744;10.106;2023-08-31T06:34:30;15.10;1.00
1011;DHT22;494;48.744;10.106;2023-08-31T06:36:59;15.30;1.00
1011;DHT22;494;48.744;10.106;2023-08-31T06:39:30;15.50;1.00
1011;DHT22;494;48.744;10.106;2023-08-31T06:42:00;15.70;1.00
1011;DHT22;494;48.744;10.106;2023-08-31T06:44:32;16.00;1.00
1011;DHT22;494;48.744;10.106;2023-08-31T06:47:01;16.10;1.00
1011;DHT22;494;48.744;10.106;2023-08-31T06:49:33;16.30;1.00
1011;DHT22;494;48.744;10.106;2023-08-31T06:52:02;16.30;1.00
1011;DHT22;494;48.744;10.106;2023-08-31T06:54:55;16.30;1.00
1011;DHT22;494;48.744;10.106;2023-08-31T06:57:24;16.20;1.00
1011;DHT22;494;48.744;10.106;2023-08-31T06:59:56;16.30;1.00
1011;DHT22;494;48.744;10.106;2023-08-31T07:02:29;16.30;1.00
1011;DHT22;494;48.744;10.106;2023-08-31T07:05:04;16.30;1.00
1011;DHT22;494;48.744;10.106;2023-08-31T07:07:35;16.20;1.00
1011;DHT22;494;48.744;10.106;2023-08-31T07:10:42;16.20;1.00
1011;DHT22;494;48.744;10.106;2023-08-31T07:13:25;16.40;1.00
1011;DHT22;494;48.744;10.106;2023-08-31T07:15:57;16.30;1.00
1011;DHT22;494;48.744;10.106;2023-08-31T07:18:42;16.20;1.00
1011;DHT22;494;48.744;10.106;2023-08-31T07:21:11;16.50;1.00
1011;DHT22;494;48.744;10.106;2023-08-31T07:23:40;16.70;1.00
1011;DHT22;494;48.744;10.106;2023-08-31T07:26:10;16.80;1.00
1011;DHT22;494;48.744;10.106;2023-08-31T07:28:40;17.10;1.00
1011;DHT22;494;48.744;10.106;2023-08-31T07:31:12;17.40;1.00
1011;DHT22;494;48.744;10.106;2023-08-31T07:33:44;17.50;1.00
1011;DHT22;494;48.744;10.106;2023-08-31T07:36:15;17.70;1.00
1011;DHT22;494;48.744;10.106;2023-08-31T07:38:44;17.60;1.00
1011;DHT22;494;48.744;10.106;2023-08-31T07:41:13;17.60;1.00
1011;DHT22;494;48.744;10.106;2023-08-31T07:43:43;17.60;1.00
1011;DHT22;494;48.744;10.106;2023-08-31T07:46:32;17.70;1.00
1011;DHT22;494;48.744;10.106;2023-08-31T07:49:03;17.80;1.00
1011;DHT22;494;48.744;10.106;2023-08-31T07:51:33;17.90;1.00
1011;DHT22;494;48.744;10.106;2023-08-31T07:54:04;18.10;1.00
1011;DHT22;494;48.744;10.106;2023-08-31T07:56:33;18.20;1.00
1011;DHT22;494;48.744;10.106;2023-08-31T07:59:03;18.20;1.00
1011;DHT22;494;48.744;10.106;2023-08-31T08:01:35;18.30;1.00
1011;DHT22;494;48.744;10.106;2023-08-31T08:04:06;18.50;1.00
1011;DHT22;494;48.744;10.106;2023-08-31T08:06:37;18.80;1.00
1011;DHT22;494;48.744;10.106;2023-08-31T08:09:09;19.00;1.00
1011;DHT22;494;48.744;10.106;2023-08-31T08:11:41;19.10;1.00
1011;DHT22;494;48.744;10.106;2023-08-31T08:14:13;19.20;1.00
1011;DHT22;494;48.744;10.106;2023-08-31T08:16:46;19.50;1.00
1011;DHT22;494;48.744;10.106;2023-08-31T08:19:21;19.60;1.00
1011;DHT22;494;48.744;10.106;2023-08-31T08:21:55;19.70;1.00
1011;DHT22;494;48.744;10.106;2023-08-31T08:24:24;19.60;1.00
1011;DHT22;494;48.744;10.106;2023-08-31T08:26:54;19.60;1.00
1011;DHT22;494;48.744;10.106;2023-08-31T08:29:24;19.70;1.00
1011;DHT22;494;48.744;10.106;2023-08-31T08:31:56;19.70;1.00
1011;DHT22;494;48.744;10.106;2023-08-31T08:34:30;20.00;1.00
1011;DHT22;494;48.744;10.106;2023-08-31T08:37:02;20.20;1.00
1011;DHT22;494;48.744;10.106;2023-08-31T08:39:31;20.20;1.00
1011;DHT22;494;48.744;10.106;2023-08-31T08:42:03;19.90;1.00
1011;DHT22;494;48.744;10.106;2023-08-31T08:44:39;19.70;1.00
1011;DHT22;494;48.744;10.106;2023-08-31T08:47:12;19.70;1.00
1011;DHT22;494;48.744;10.106;2023-08-31T08:49:54;19.80;1.00
1011;DHT22;494;48.744;10.106;2023-08-31T08:53:08;20.20;1.00
1011;DHT22;494;48.744;10.106;2023-08-31T08:55:43;20.60;1.00
1011;DHT22;494;48.744;10.106;2023-08-31T08:58:12;20.80;1.00
1011;DHT22;494;48.744;10.106;2023-08-31T09:00:41;20.80;1.00
1011;DHT22;494;48.744;10.106;2023-08-31T09:03:12;20.80;1.00
1011;DHT22;494;48.744;10.106;2023-08-31T09:05:42;20.60;1.00
1011;DHT22;494;48.744;10.106;2023-08-31T09:08:11;20.50;1.00
1011;DHT22;494;48.744;10.106;2023-08-31T09:10:43;20.40;1.00
1011;DHT22;494;48.744;10.106;2023-08-31T09:13:14;20.30;1.00
1011;DHT22;494;48.744;10.106;2023-08-31T09:15:45;20.20;1.00
1011;DHT22;494;48.744;10.106;2023-08-31T09:18:23;20.50;1.00
1011;DHT22;494;48.744;10.106;2023-08-31T09:20:55;20.60;1.00
1011;DHT22;494;48.744;10.106;2023-08-31T09:23:25;20.90;1.00
1011;DHT22;494;48.744;10.106;2023-08-31T09:25:55;21.20;1.00
1011;DHT22;494;48.744;10.106;2023-08-31T09:28:26;21.40;1.00
1011;DHT22;494;48.744;10.106;2023-08-31T09:31:04;21.70;1.00
1011;DHT22;494;48.744;10.106;2023-08-31T09:33:37;21.90;1.00
1011;DHT22;494;48.744;10.106;2023-08-31T09:36:21;22.20;1.00
1011;DHT22;494;48.744;10.106;2023-08-31T09:38:51;22.50;1.00
1011;DHT22;494;48.744;10.106;2023-08-31T09:41:19;22.40;1.00
1011;DHT22;494;48.744;10.106;2023-08-31T09:43:49;22.50;1.00
1011;DHT22;494;48.744;10.106;2023-08-31T09:46:21;22.50;1.00
1011;DHT22;494;48.744;10.106;2023-08-31T09:48:52;22.40;1.00
1011;DHT22;494;48.744;10.106;2023-08-31T09:51:22;22.50;1.00
1011;DHT22;494;48.744;10.106;2023-08-31T09:53:57;22.70;1.00
1011;DHT22;494;48.744;10.106;2023-08-31T09:56:32;22.70;1.00
1011;DHT22;494;48.744;10.106;2023-08-31T09:59:03;22.60;1.00
1011;DHT22;494;48.744;10.106;2023-08-31T10:01:33;22.60;1.00
1011;DHT22;494;48.744;10.106;2023-08-31T10:04:05;22.60;1.00
1011;DHT22;494;48.744;10.106;2023-08-31T10:06:38;22.80;1.00
1011;DHT22;494;48.744;10.106;2023-08-31T10:09:08;22.70;1.00
1011;DHT22;494;48.744;10.106;2023-08-31T10:11:39;22.90;1.00
1011;DHT22;494;48.744;10.106;2023-08-31T10:14:09;22.90;1.00
1011;DHT22;494;48.744;10.106;2023-08-31T10:16:41;22.90;1.00
1011;DHT22;494;48.744;10.106;2023-08-31T10:19:14;22.90;1.00
1011;DHT22;494;48.744;10.106;2023-08-31T10:21:43;23.00;1.00
1011;DHT22;494;48.744;10.106;2023-08-31T10:24:12;23.20;1.00
1011;DHT22;494;48.744;10.106;2023-08-31T10:26:44;23.30;1.00
1011;DHT22;494;48.744;10.106;2023-08-31T10:29:26;23.40;1.00
1011;DHT22;494;48.744;10.106;2023-08-31T10:32:00;23.20;1.00
1011;DHT22;494;48.744;10.106;2023-08-31T10:35:04;23.20;1.00
1011;DHT22;494;48.744;10.106;2023-08-31T10:37:34;23.00;1.00
1011;DHT22;494;48.744;10.106;2023-08-31T10:40:09;22.80;1.00
1011;DHT22;494;48.744;10.106;2023-08-31T10:45:44;22.90;1.00
1011;DHT22;494;48.744;10.106;2023-08-31T10:48:13;23.00;1.00
1011;DHT22;494;48.744;10.106;2023-08-31T10:50:46;22.90;1.00
1011;DHT22;494;48.744;10.106;2023-08-31T10:53:15;22.90;1.00
1011;DHT22;494;48.744;10.106;2023-08-31T10:55:51;23.20;1.00
1011;DHT22;494;48.744;10.106;2023-08-31T10:58:20;23.30;1.00
1011;DHT22;494;48.744;10.106;2023-08-31T11:00:51;23.30;1.00
1011;DHT22;494;48.744;10.106;2023-08-31T11:03:23;23.40;1.00
1011;DHT22;494;48.744;10.106;2023-08-31T11:05:54;23.50;1.00
1011;DHT22;494;48.744;10.106;2023-08-31T11:08:23;23.40;1.00
1011;DHT22;494;48.744;10.106;2023-08-31T11:10:52;23.70;1.00
1011;DHT22;494;48.744;10.106;2023-08-31T11:13:23;24.10;1.00
1011;DHT22;494;48.744;10.106;2023-08-31T11:15:55;24.60;1.00
1011;DHT22;494;48.744;10.106;2023-08-31T11:18:25;24.80;1.00
1011;DHT22;494;48.744;10.106;2023-08-31T11:20:56;25.00;1.00
1011;DHT22;494;48.744;10.106;2023-08-31T11:23:26;24.90;1.00
1011;DHT22;494;48.744;10.106;2023-08-31T11:25:56;24.20;1.00
1011;DHT22;494;48.744;10.106;2023-08-31T11:28:25;23.80;1.00
1011;DHT22;494;48.744;10.106;2023-08-31T11:30:54;23.40;1.00
1011;DHT22;494;48.744;10.106;2023-08-31T11:33:31;23.40;1.00
1011;DHT22;494;48.744;10.106;2023-08-31T11:36:06;23.50;1.00
1011;DHT22;494;48.744;10.106;2023-08-31T11:38:37;23.50;1.00
1011;DHT22;494;48.744;10.106;2023-08-31T11:41:07;23.40;1.00
1011;DHT22;494;48.744;10.106;2023-08-31T11:43:38;23.40;1.00
1011;DHT22;494;48.744;10.106;2023-08-31T11:46:09;23.20;1.00
1011;DHT22;494;48.744;10.106;2023-08-31T11:48:39;23.30;1.00
1011;DHT22;494;48.744;10.106;2023-08-31T11:51:13;23.80;1.00
1011;DHT22;494;48.744;10.106;2023-08-31T11:53:42;24.40;1.00
1011;DHT22;494;48.744;10.106;2023-08-31T11:56:13;25.00;1.00
1011;DHT22;494;48.744;10.106;2023-08-31T11:58:43;25.50;1.00
1011;DHT22;494;48.744;10.106;2023-08-31T12:01:30;26.10;1.00
1011;DHT22;494;48.744;10.106;2023-08-31T12:03:57;25.90;1.00
1011;DHT22;494;48.744;10.106;2023-08-31T12:06:30;25.50;1.00
1011;DHT22;494;48.744;10.106;2023-08-31T12:08:59;25.40;1.00
1011;DHT22;494;48.744;10.106;2023-08-31T12:11:28;25.00;1.00
1011;DHT22;494;48.744;10.106;2023-08-31T12:13:59;24.50;1.00
1011;DHT22;494;48.744;10.106;2023-08-31T12:16:32;24.00;1.00
1011;DHT22;494;48.744;10.106;2023-08-31T12:19:03;23.70;1.00
1011;DHT22;494;48.744;10.106;2023-08-31T12:21:34;23.80;1.00
1011;DHT22;494;48.744;10.106;2023-08-31T12:24:06;23.90;1.00
1011;DHT22;494;48.744;10.106;2023-08-31T12:26:37;23.70;1.00
1011;DHT22;494;48.744;10.106;2023-08-31T12:29:08;23.50;1.00
1011;DHT22;494;48.744;10.106;2023-08-31T12:31:38;23.40;1.00
1011;DHT22;494;48.744;10.106;2023-08-31T12:34:08;23.30;1.00
1011;DHT22;494;48.744;10.106;2023-08-31T12:36:39;23.40;1.00
1011;DHT22;494;48.744;10.106;2023-08-31T12:39:08;23.50;1.00
1011;DHT22;494;48.744;10.106;2023-08-31T12:41:40;23.50;1.00
1011;DHT22;494;48.744;10.106;2023-08-31T12:44:08;23.40;1.00
1011;DHT22;494;48.744;10.106;2023-08-31T12:46:38;23.10;1.00
1011;DHT22;494;48.744;10.106;2023-08-31T12:49:07;22.90;1.00
1011;DHT22;494;48.744;10.106;2023-08-31T12:51:36;22.70;1.00
1011;DHT22;494;48.744;10.106;2023-08-31T12:54:07;22.90;1.00
1011;DHT22;494;48.744;10.106;2023-08-31T12:56:36;23.60;1.00
1011;DHT22;494;48.744;10.106;2023-08-31T12:59:05;24.10;1.00
1011;DHT22;494;48.744;10.106;2023-08-31T13:01:34;24.50;1.00
1011;DHT22;494;48.744;10.106;2023-08-31T13:04:03;24.60;1.00
1011;DHT22;494;48.744;10.106;2023-08-31T13:06:32;25.00;1.00
1011;DHT22;494;48.744;10.106;2023-08-31T13:09:01;25.40;1.00
1011;DHT22;494;48.744;10.106;2023-08-31T13:11:34;25.70;1.00
1011;DHT22;494;48.744;10.106;2023-08-31T13:14:03;25.60;1.00
1011;DHT22;494;48.744;10.106;2023-08-31T13:16:32;25.20;1.00
1011;DHT22;494;48.744;10.106;2023-08-31T13:19:04;25.10;1.00
1011;DHT22;494;48.744;10.106;2023-08-31T13:21:35;25.50;1.00
1011;DHT22;494;48.744;10.106;2023-08-31T13:24:04;26.00;1.00
1011;DHT22;494;48.744;10.106;2023-08-31T13:26:35;26.10;1.00
1011;DHT22;494;48.744;10.106;2023-08-31T13:29:04;25.80;1.00
1011;DHT22;494;48.744;10.106;2023-08-31T13:31:34;25.90;1.00
1011;DHT22;494;48.744;10.106;2023-08-31T13:34:04;26.00;1.00
1011;DHT22;494;48.744;10.106;2023-08-31T13:36:34;26.10;1.00
1011;DHT22;494;48.744;10.106;2023-08-31T13:39:03;26.00;1.00
1011;DHT22;494;48.744;10.106;2023-08-31T13:41:31;25.70;1.00
1011;DHT22;494;48.744;10.106;2023-08-31T13:44:03;25.50;1.00
1011;DHT22;494;48.744;10.106;2023-08-31T13:46:32;25.30;1.00
1011;DHT22;494;48.744;10.106;2023-08-31T13:49:01;25.10;1.00
1011;DHT22;494;48.744;10.106;2023-08-31T13:51:32;25.10;1.00
1011;DHT22;494;48.744;10.106;2023-08-31T13:54:02;24.90;1.00
1011;DHT22;494;48.744;10.106;2023-08-31T13:56:33;25.10;1.00
1011;DHT22;494;48.744;10.106;2023-08-31T13:59:04;25.50;1.00
1011;DHT22;494;48.744;10.106;2023-08-31T14:01:32;25.60;1.00
1011;DHT22;494;48.744;10.106;2023-08-31T14:04:02;25.80;1.00
1011;DHT22;494;48.744;10.106;2023-08-31T14:06:31;25.50;1.00
1011;DHT22;494;48.744;10.106;2023-08-31T14:09:00;25.40;1.00
1011;DHT22;494;48.744;10.106;2023-08-31T14:11:30;25.50;1.00
1011;DHT22;494;48.744;10.106;2023-08-31T14:14:05;25.60;1.00
1011;DHT22;494;48.744;10.106;2023-08-31T14:16:38;26.10;1.00
1011;DHT22;494;48.744;10.106;2023-08-31T14:19:07;26.40;1.00
1011;DHT22;494;48.744;10.106;2023-08-31T14:21:38;26.80;1.00
1011;DHT22;494;48.744;10.106;2023-08-31T14:24:07;27.00;1.00
1011;DHT22;494;48.744;10.106;2023-08-31T14:26:36;26.90;1.00
1011;DHT22;494;48.744;10.106;2023-08-31T14:29:07;26.70;1.00
1011;DHT22;494;48.744;10.106;2023-08-31T14:31:37;26.40;1.00
1011;DHT22;494;48.744;10.106;2023-08-31T14:34:07;26.20;1.00
1011;DHT22;494;48.744;10.106;2023-08-31T14:36:35;25.80;1.00
1011;DHT22;494;48.744;10.106;2023-08-31T14:39:04;25.40;1.00
1011;DHT22;494;48.744;10.106;2023-08-31T14:41:33;25.20;1.00
1011;DHT22;494;48.744;10.106;2023-08-31T14:44:03;25.10;1.00
1011;DHT22;494;48.744;10.106;2023-08-31T14:46:36;25.00;1.00
1011;DHT22;494;48.744;10.106;2023-08-31T14:49:05;25.00;1.00
1011;DHT22;494;48.744;10.106;2023-08-31T14:51:34;25.00;1.00
1011;DHT22;494;48.744;10.106;2023-08-31T14:54:03;24.80;1.00
1011;DHT22;494;48.744;10.106;2023-08-31T14:56:34;24.80;1.00
1011;DHT22;494;48.744;10.106;2023-08-31T14:59:02;25.20;1.00
1011;DHT22;494;48.744;10.106;2023-08-31T15:01:31;25.70;1.00
1011;DHT22;494;48.744;10.106;2023-08-31T15:04:02;26.40;1.00
1011;DHT22;494;48.744;10.106;2023-08-31T15:06:34;26.60;1.00
1011;DHT22;494;48.744;10.106;2023-08-31T15:09:03;26.50;1.00
1011;DHT22;494;48.744;10.106;2023-08-31T15:11:33;26.40;1.00
1011;DHT22;494;48.744;10.106;2023-08-31T15:14:03;26.40;1.00
1011;DHT22;494;48.744;10.106;2023-08-31T15:16:32;26.40;1.00
1011;DHT22;494;48.744;10.106;2023-08-31T15:19:04;26.70;1.00
1011;DHT22;494;48.744;10.106;2023-08-31T15:21:33;27.10;1.00
1011;DHT22;494;48.744;10.106;2023-08-31T15:24:03;27.70;1.00
1011;DHT22;494;48.744;10.106;2023-08-31T15:26:32;28.00;1.00
1011;DHT22;494;48.744;10.106;2023-08-31T15:29:01;28.00;1.00
1011;DHT22;494;48.744;10.106;2023-08-31T15:31:31;27.80;1.00
1011;DHT22;494;48.744;10.106;2023-08-31T15:34:01;27.40;1.00
1011;DHT22;494;48.744;10.106;2023-08-31T15:36:32;26.80;1.00
1011;DHT22;494;48.744;10.106;2023-08-31T15:39:01;26.20;1.00
1011;DHT22;494;48.744;10.106;2023-08-31T15:41:31;25.70;1.00
1011;DHT22;494;48.744;10.106;2023-08-31T15:44:03;25.20;1.00
1011;DHT22;494;48.744;10.106;2023-08-31T15:46:32;24.90;1.00
1011;DHT22;494;48.744;10.106;2023-08-31T15:49:01;24.60;1.00
1011;DHT22;494;48.744;10.106;2023-08-31T15:51:33;24.40;1.00
1011;DHT22;494;48.744;10.106;2023-08-31T15:54:05;24.30;1.00
1011;DHT22;494;48.744;10.106;2023-08-31T15:56:34;24.20;1.00
1011;DHT22;494;48.744;10.106;2023-08-31T15:59:03;23.80;1.00
1011;DHT22;494;48.744;10.106;2023-08-31T16:01:32;23.60;1.00
1011;DHT22;494;48.744;10.106;2023-08-31T16:04:00;23.40;1.00
1011;DHT22;494;48.744;10.106;2023-08-31T16:06:32;23.30;1.00
1011;DHT22;494;48.744;10.106;2023-08-31T16:09:04;23.10;1.00
1011;DHT22;494;48.744;10.106;2023-08-31T16:11:34;22.90;1.00
1011;DHT22;494;48.744;10.106;2023-08-31T16:14:03;22.90;1.00
1011;DHT22;494;48.744;10.106;2023-08-31T16:16:32;22.90;1.00
1011;DHT22;494;48.744;10.106;2023-08-31T16:19:01;22.80;1.00
1011;DHT22;494;48.744;10.106;2023-08-31T16:21:32;22.70;1.00
1011;DHT22;494;48.744;10.106;2023-08-31T16:24:04;22.60;1.00
1011;DHT22;494;48.744;10.106;2023-08-31T16:26:33;22.50;1.00
1011;DHT22;494;48.744;10.106;2023-08-31T16:29:03;22.50;1.00
1011;DHT22;494;48.744;10.106;2023-08-31T16:31:33;22.40;1.00
1011;DHT22;494;48.744;10.106;2023-08-31T16:34:02;22.40;1.00
1011;DHT22;494;48.744;10.106;2023-08-31T16:36:34;22.50;1.00
1011;DHT22;494;48.744;10.106;2023-08-31T16:39:03;22.40;1.00
1011;DHT22;494;48.744;10.106;2023-08-31T16:41:33;22.40;1.00
1011;DHT22;494;48.744;10.106;2023-08-31T16:44:03;22.30;1.00
1011;DHT22;494;48.744;10.106;2023-08-31T16:46:33;22.30;1.00
1011;DHT22;494;48.744;10.106;2023-08-31T16:49:01;22.30;1.00